Latest Weather Observations for Hopetoun North

IDW60801

Issued at 6:05 am WST Sunday 20 April 2014 (issued every 30 minutes, with the page automatically refreshed every 10 minutes)

About weather observations | Map of weather stations | Latest weather observations for WA | Other Formats
Station Details ID: 009961 Name: HOPETOUN NORTH Lat: -33.93 Lon: 120.13 Height: 26.0 m
Data from the previous 72 hours. | See also: Recent months at Hopetoun North
Date/Time
WST
Temp
°C
App
Temp
°C
Dew
Point
Rel
Hum
%
Delta-T
°C
Wind Press
QNH
hPa
Press
MSL
hPa
Rain
since 9 am
mm
Dir
 
Spd
km/h
Gust
km/h
Spd
kts
Gust
kts
20/06:00am - - - - - NNW 4 6 2 3 1014.8 1014.8 0.0
20/05:30am - - - - - NW 0 0 0 0 1014.6 - 0.0
20/05:00am - - - - - CALM 0 0 0 0 1014.7 1014.7 0.0
20/04:30am - - - - - CALM 0 0 0 0 1014.6 - 0.0
20/04:00am - - - - - N 4 7 2 4 1014.7 1014.7 0.0
20/03:30am - - - - - N 4 6 2 3 1014.9 - 0.0
20/03:00am - - - - - N 6 7 3 4 1014.9 1014.9 0.0
20/02:30am - - - - - N 4 7 2 4 1015.1 - 0.0
20/02:00am - - - - - E 6 7 3 4 1015.5 1015.4 0.0
20/01:30am - - - - - ESE 9 15 5 8 1015.7 - 0.0
20/01:00am - - - - - ESE 11 17 6 9 1015.7 1015.6 0.0
20/12:30am - - - - - SE 13 19 7 10 1015.8 - 0.0
20/12:00am - - - - - SE 11 19 6 10 1015.8 1015.7 0.0
 
Date/Time
WST
Temp
°C
App
Temp
°C
Dew
Point
Rel
Hum
%
Delta-T
°C
Wind Press
QNH
hPa
Press
MSL
hPa
Rain
since 9 am
mm
Dir
 
Spd
km/h
Gust
km/h
Spd
kts
Gust
kts
19/11:30pm - - - - - SE 11 13 6 7 1015.9 - 0.0
19/11:00pm - - - - - SE 11 15 6 8 1016.2 1016.1 0.0
19/10:30pm - - - - - SE 9 15 5 8 1016.7 - 0.0
19/10:00pm - - - - - SE 9 15 5 8 1016.8 1016.7 0.0
19/09:30pm - - - - - SSE 11 15 6 8 1016.9 - 0.0
19/09:00pm - - - - - SSE 13 19 7 10 1017.0 1016.9 0.0
19/08:30pm - - - - - SSE 13 20 7 11 1017.0 - 0.0
19/08:00pm - - - - - SSE 13 19 7 10 1017.0 1016.9 0.0
19/07:30pm - - - - - SSE 15 22 8 12 1016.9 - 0.0
19/07:00pm - - - - - SSE 17 26 9 14 1016.9 1016.8 0.0
19/06:30pm - - - - - S 15 22 8 12 1016.8 - 0.0
19/06:00pm - - - - - S 17 24 9 13 1016.7 1016.6 0.0
19/05:30pm - - - - - S 20 28 11 15 1016.5 - 0.0
19/05:00pm - - - - - S 20 28 11 15 1016.3 1016.2 0.0
19/04:30pm - - - - - S 22 33 12 18 1016.1 - 0.0
19/04:00pm - - - - - S 26 35 14 19 1015.9 1015.8 0.0
19/03:30pm - - - - - S 26 35 14 19 1016.0 - 0.0
19/03:00pm - - - - - S 20 24 11 13 1015.9 1015.8 0.0
19/02:30pm - - - - - S 20 26 11 14 1015.7 - 0.0
19/02:00pm - - - - - S 22 30 12 16 1015.6 1015.5 0.0
19/01:30pm - - - - - S 20 26 11 14 1015.5 - 0.0
19/01:00pm - - - - - S 19 24 10 13 1015.6 1015.5 0.0
19/12:30pm - - - - - SSW 20 28 11 15 1016.0 - 0.0
19/12:00pm - - - - - SW 20 26 11 14 1016.3 1016.2 0.0
19/11:30am - - - - - SSW 19 26 10 14 1016.5 - 0.0
19/11:00am - - - - - SW 13 20 7 11 1017.0 1016.9 0.0
19/10:30am - - - - - SW 15 20 8 11 1017.3 - 0.0
19/10:00am - - - - - SSW 15 20 8 11 1017.6 1017.5 0.0
19/09:30am - - - - - SSW 17 24 9 13 1017.9 - 0.0
19/09:00am - - - - - SW 11 15 6 8 1017.8 1017.7 0.0
19/08:30am - - - - - WSW 2 6 1 3 1017.8 - 0.0
19/08:00am - - - - - CALM 0 2 0 1 1017.8 1017.7 0.0
19/07:30am - - - - - NW 4 6 2 3 1017.7 - 0.0
19/07:00am - - - - - NW 6 7 3 4 1017.5 1017.4 0.0
19/06:30am - - - - - NNW 6 7 3 4 1017.3 - 0.0
19/06:00am - - - - - NNW 4 4 2 2 1017.2 1017.1 0.0
19/05:30am - - - - - NW 6 6 3 3 1017.1 - 0.0
19/05:00am - - - - - WNW 6 7 3 4 1017.2 1017.1 0.0
19/04:30am - - - - - N 4 6 2 3 1016.9 - 0.0
19/04:00am - - - - - NE 4 6 2 3 1016.9 1016.8 0.0
19/03:30am - - - - - NE 6 6 3 3 1016.8 - 0.0
19/03:00am - - - - - CALM 0 0 0 0 1017.0 1016.9 0.0
19/02:30am - - - - - NE 4 6 2 3 1017.3 - 0.0
19/02:00am - - - - - E 6 7 3 4 1017.7 1017.6 0.0
19/01:30am - - - - - ESE 7 11 4 6 1018.0 - 0.0
19/01:00am - - - - - ESE 6 7 3 4 1018.4 1018.3 0.0
19/12:30am - - - - - E 7 9 4 5 1018.6 - 0.0
19/12:00am - - - - - E 2 4 1 2 1018.8 1018.7 0.0
 
Date/Time
WST
Temp
°C
App
Temp
°C
Dew
Point
Rel
Hum
%
Delta-T
°C
Wind Press
QNH
hPa
Press
MSL
hPa
Rain
since 9 am
mm
Dir
 
Spd
km/h
Gust
km/h
Spd
kts
Gust
kts
18/11:30pm - - - - - NE 2 4 1 2 1018.7 - 0.0
18/11:00pm - - - - - NNE 4 6 2 3 1019.0 1018.9 0.0
18/10:30pm - - - - - NE 7 7 4 4 1019.3 - 0.0
18/10:00pm - - - - - ENE 6 7 3 4 1019.7 1019.6 0.0
18/09:30pm - - - - - NE 7 9 4 5 1019.6 - 0.0
18/09:00pm - - - - - NE 4 7 2 4 1019.9 1019.8 0.0
18/08:30pm - - - - - NE 7 9 4 5 1019.7 - 0.0
18/08:00pm - - - - - ENE 7 13 4 7 1019.9 1019.8 0.0
18/07:30pm - - - - - ENE 9 13 5 7 1019.9 - 0.0
18/07:00pm - - - - - ENE 11 17 6 9 1020.1 1020.0 0.0
18/06:30pm - - - - - ENE 13 22 7 12 1019.9 - 0.0
18/06:00pm - - - - - E 15 22 8 12 1019.7 1019.6 0.0
18/05:30pm - - - - - E 15 26 8 14 1019.4 - 0.0
18/05:00pm - - - - - E 20 28 11 15 1019.3 1019.2 0.0
18/04:30pm - - - - - E 22 35 12 19 1019.2 - 0.0
18/04:00pm - - - - - ESE 24 37 13 20 1019.3 1019.2 0.0
18/03:30pm - - - - - ESE 26 39 14 21 1019.3 - 0.0
18/03:00pm - - - - - ESE 24 33 13 18 1019.6 1019.5 0.0
18/02:30pm - - - - - SE 24 32 13 17 1019.8 - 0.0
18/02:00pm - - - - - SE 24 32 13 17 1020.0 1019.9 0.0
18/01:30pm - - - - - SE 24 32 13 17 1020.4 - 0.0
18/01:00pm - - - - - ESE 20 30 11 16 1020.8 1020.7 0.0
18/12:30pm - - - - - SE 22 30 12 16 1021.3 - 0.0
18/12:00pm - - - - - SE 19 26 10 14 1021.9 1021.8 0.0
18/11:30am - - - - - NE 9 22 5 12 1022.4 - 0.0
18/11:00am - - - - - NE 7 19 4 10 1023.0 1022.9 0.0
18/10:30am - - - - - N 13 19 7 10 1023.2 - 0.0
18/10:00am - - - - - NNE 13 22 7 12 1023.7 1023.6 0.0
18/09:30am - - - - - NNE 19 28 10 15 1024.1 - 0.0
18/09:00am - - - - - NNE 17 26 9 14 1024.2 1024.1 0.2
18/08:30am - - - - - NNE 19 26 10 14 1024.5 - 0.2
18/08:00am - - - - - NNE 13 19 7 10 1024.6 1024.5 0.2
18/07:30am - - - - - NNE 7 9 4 5 1024.6 - 0.2
18/07:00am - - - - - N 6 7 3 4 1024.4 1024.3 0.2
18/06:30am - - - - - N 6 7 3 4 1024.4 - 0.2
18/06:00am - - - - - NNE 6 7 3 4 1024.2 1024.1 0.2
18/05:30am - - - - - NNE 7 9 4 5 1024.2 - 0.2
18/05:00am - - - - - NNE 7 9 4 5 1024.1 1024.0 0.2
18/04:30am - - - - - NNE 6 7 3 4 1023.9 - 0.2
18/04:00am - - - - - NNE 6 7 3 4 1023.8 1023.7 0.2
18/03:30am - - - - - N 6 7 3 4 1023.7 - 0.2
18/03:00am - - - - - NE 4 7 2 4 1023.6 1023.5 0.2
18/02:30am - - - - - NE 6 7 3 4 1023.5 - 0.2
18/02:00am - - - - - E 6 7 3 4 1023.7 1023.6 0.2
18/01:30am - - - - - E 6 9 3 5 1023.8 - 0.2
18/01:00am - - - - - ESE 9 17 5 9 1023.9 1023.8 0.2
18/12:30am - - - - - ESE 11 15 6 8 1023.7 - 0.2
18/12:00am - - - - - ESE 9 17 5 9 1023.7 1023.6 0.2
 
Date/Time
WST
Temp
°C
App
Temp
°C
Dew
Point
Rel
Hum
%
Delta-T
°C
Wind Press
QNH
hPa
Press
MSL
hPa
Rain
since 9 am
mm
Dir
 
Spd
km/h
Gust
km/h
Spd
kts
Gust
kts
17/11:30pm - - - - - ESE 9 13 5 7 1023.9 - 0.2
17/11:00pm - - - - - SE 11 15 6 8 1023.8 1023.7 0.2
17/10:30pm - - - - - SE 9 15 5 8 1023.9 - 0.2
17/10:00pm - - - - - SE 13 19 7 10 1023.9 1023.8 0.2
17/09:30pm - - - - - SSE 15 20 8 11 1023.8 - 0.2
17/09:00pm - - - - - SSE 15 20 8 11 1023.8 1023.7 0.2
17/08:30pm - - - - - SSE 17 26 9 14 1023.7 - 0.2
17/08:00pm - - - - - S 19 26 10 14 1023.6 1023.5 0.2
17/07:30pm - - - - - S 22 30 12 16 1023.2 - 0.2
17/07:00pm - - - - - S 15 20 8 11 1022.9 1022.8 0.2
17/06:30pm - - - - - S 17 24 9 13 1022.6 - 0.2
17/06:00pm - - - - - S 19 26 10 14 1022.1 1022.0 0.2
17/05:30pm - - - - - S 19 24 10 13 1021.6 - 0.2
17/05:00pm - - - - - S 19 26 10 14 1021.3 1021.2 0.2
17/04:30pm - - - - - S 22 28 12 15 1021.0 - 0.2
17/04:00pm - - - - - S 22 28 12 15 1020.8 1020.7 0.2
17/03:30pm - - - - - S 19 26 10 14 1020.7 - 0.2
17/03:00pm - - - - - S 17 24 9 13 1020.6 1020.5 0.2
17/02:30pm - - - - - S 17 24 9 13 1020.4 - 0.2
17/02:00pm - - - - - S 20 30 11 16 1020.1 1020.0 0.2
17/01:30pm - - - - - S 20 28 11 15 1020.0 - 0.2
17/01:00pm - - - - - SSW 24 32 13 17 1020.1 1020.0 0.2
17/12:30pm - - - - - SW 19 24 10 13 1020.2 - 0.2
17/12:00pm - - - - - SSW 17 24 9 13 1020.4 1020.3 0.2
17/11:30am - - - - - SW 20 26 11 14 1020.7 - 0.2
17/11:00am - - - - - SW 22 28 12 15 1020.7 1020.6 0.0
17/10:30am - - - - - W 15 24 8 13 1020.7 - 0.0
17/10:00am - - - - - WNW 11 19 6 10 1020.5 1020.4 0.0
17/09:30am - - - - - WNW 13 17 7 9 1020.6 - 0.0
17/09:00am - - - - - W 13 19 7 10 1020.7 1020.6 0.0
17/08:30am - - - - - W 6 13 3 7 1020.7 - 0.0
17/08:00am - - - - - W 9 13 5 7 1020.5 1020.4 0.0
17/07:30am - - - - - NW 7 9 4 5 1020.2 - 0.0
17/07:00am - - - - - NW 9 9 5 5 1019.9 1019.8 0.0
17/06:30am - - - - - NW 9 11 5 6 1019.6 - 0.0

Other Formats:

Comma delimited format used in spreadsheet applications
http://www.bom.gov.au/fwo/IDW60801/IDW60801.95635.axf

JavaScript Object Notation format (JSON) in row-major order
http://www.bom.gov.au/fwo/IDW60801/IDW60801.95635.json